sensor_id;sensor_type;location;lat;lon;timestamp;temperature;humidity
40053;DHT22;25758;48.200;16.338;2024-03-23T00:53:12;12.90;99.90
40053;DHT22;25758;48.200;16.338;2024-03-23T01:10:16;13.50;99.90
40053;DHT22;25758;48.200;16.338;2024-03-23T01:12:42;13.50;99.90
40053;DHT22;25758;48.200;16.338;2024-03-23T01:15:08;13.60;99.90
40053;DHT22;25758;48.200;16.338;2024-03-23T01:17:33;13.60;99.90
40053;DHT22;25758;48.200;16.338;2024-03-23T01:19:59;13.60;99.90
40053;DHT22;25758;48.200;16.338;2024-03-23T01:22:25;13.60;99.90
40053;DHT22;25758;48.200;16.338;2024-03-23T01:27:16;13.70;99.90
40053;DHT22;25758;48.200;16.338;2024-03-23T01:29:42;13.70;99.90
40053;DHT22;25758;48.200;16.338;2024-03-23T01:32:07;13.70;99.90
40053;DHT22;25758;48.200;16.338;2024-03-23T01:34:33;13.70;99.90
40053;DHT22;25758;48.200;16.338;2024-03-23T01:36:59;13.80;99.90
40053;DHT22;25758;48.200;16.338;2024-03-23T01:39:25;13.80;99.90
40053;DHT22;25758;48.200;16.338;2024-03-23T01:41:51;13.80;99.90
40053;DHT22;25758;48.200;16.338;2024-03-23T01:44:16;13.80;99.90
40053;DHT22;25758;48.200;16.338;2024-03-23T01:46:43;15.40;99.90
40053;DHT22;25758;48.200;16.338;2024-03-23T01:49:09;13.80;99.90
40053;DHT22;25758;48.200;16.338;2024-03-23T01:54:04;13.80;99.90
40053;DHT22;25758;48.200;16.338;2024-03-23T01:56:34;13.70;99.90
40053;DHT22;25758;48.200;16.338;2024-03-23T01:59:04;13.60;99.90
40053;DHT22;25758;48.200;16.338;2024-03-23T02:01:29;13.60;99.90
40053;DHT22;25758;48.200;16.338;2024-03-23T02:03:55;13.60;99.90
40053;DHT22;25758;48.200;16.338;2024-03-23T02:06:22;13.60;99.90
40053;DHT22;25758;48.200;16.338;2024-03-23T02:08:48;13.50;99.90
40053;DHT22;25758;48.200;16.338;2024-03-23T02:11:14;13.30;99.90
40053;DHT22;25758;48.200;16.338;2024-03-23T02:13:39;13.30;99.90
40053;DHT22;25758;48.200;16.338;2024-03-23T02:16:05;13.10;99.90
40053;DHT22;25758;48.200;16.338;2024-03-23T02:18:34;13.00;99.90
40053;DHT22;25758;48.200;16.338;2024-03-23T02:21:00;13.00;99.90
40053;DHT22;25758;48.200;16.338;2024-03-23T02:23:26;13.10;99.90
40053;DHT22;25758;48.200;16.338;2024-03-23T02:25:51;13.20;99.90
40053;DHT22;25758;48.200;16.338;2024-03-23T02:28:22;13.20;99.90
40053;DHT22;25758;48.200;16.338;2024-03-23T02:30:50;13.40;99.90
40053;DHT22;25758;48.200;16.338;2024-03-23T02:33:16;13.40;99.90
40053;DHT22;25758;48.200;16.338;2024-03-23T02:35:43;13.40;99.90
40053;DHT22;25758;48.200;16.338;2024-03-23T02:38:09;13.50;99.90
40053;DHT22;25758;48.200;16.338;2024-03-23T02:40:34;13.40;99.90
40053;DHT22;25758;48.200;16.338;2024-03-23T02:43:00;13.20;99.90
40053;DHT22;25758;48.200;16.338;2024-03-23T02:45:25;13.30;99.90
40053;DHT22;25758;48.200;16.338;2024-03-23T02:47:51;13.30;99.90
40053;DHT22;25758;48.200;16.338;2024-03-23T02:50:21;13.30;99.90
40053;DHT22;25758;48.200;16.338;2024-03-23T02:52:47;13.20;99.90
40053;DHT22;25758;48.200;16.338;2024-03-23T02:55:13;13.10;99.90
40053;DHT22;25758;48.200;16.338;2024-03-23T02:57:40;12.80;99.90
40053;DHT22;25758;48.200;16.338;2024-03-23T03:00:06;12.90;99.90
40053;DHT22;25758;48.200;16.338;2024-03-23T03:02:33;13.00;99.90
40053;DHT22;25758;48.200;16.338;2024-03-23T03:04:58;12.90;99.90
40053;DHT22;25758;48.200;16.338;2024-03-23T03:07:24;12.70;99.90
40053;DHT22;25758;48.200;16.338;2024-03-23T03:09:50;12.80;99.90
40053;DHT22;25758;48.200;16.338;2024-03-23T03:12:15;12.90;99.90
40053;DHT22;25758;48.200;16.338;2024-03-23T03:14:41;12.90;99.90
40053;DHT22;25758;48.200;16.338;2024-03-23T03:17:06;13.00;99.90
40053;DHT22;25758;48.200;16.338;2024-03-23T03:19:32;13.10;99.90
40053;DHT22;25758;48.200;16.338;2024-03-23T03:21:58;13.20;99.90
40053;DHT22;25758;48.200;16.338;2024-03-23T03:24:23;13.20;99.90
40053;DHT22;25758;48.200;16.338;2024-03-23T03:26:49;13.30;99.90
40053;DHT22;25758;48.200;16.338;2024-03-23T03:29:15;13.10;99.90
40053;DHT22;25758;48.200;16.338;2024-03-23T03:31:41;13.10;99.90
40053;DHT22;25758;48.200;16.338;2024-03-23T03:34:07;13.10;99.90
40053;DHT22;25758;48.200;16.338;2024-03-23T03:36:33;13.00;99.90
40053;DHT22;25758;48.200;16.338;2024-03-23T03:38:59;12.80;99.90
40053;DHT22;25758;48.200;16.338;2024-03-23T03:41:24;12.70;99.90
40053;DHT22;25758;48.200;16.338;2024-03-23T03:46:16;12.60;99.90
40053;DHT22;25758;48.200;16.338;2024-03-23T03:48:42;12.50;99.90
40053;DHT22;25758;48.200;16.338;2024-03-23T03:51:10;12.50;99.90
40053;DHT22;25758;48.200;16.338;2024-03-23T03:53:36;12.70;99.90
40053;DHT22;25758;48.200;16.338;2024-03-23T03:56:02;12.80;99.90
40053;DHT22;25758;48.200;16.338;2024-03-23T03:58:27;12.80;99.90
40053;DHT22;25758;48.200;16.338;2024-03-23T04:10:47;12.20;99.90
40053;DHT22;25758;48.200;16.338;2024-03-23T04:13:13;12.20;99.90
40053;DHT22;25758;48.200;16.338;2024-03-23T04:18:06;12.40;99.90
40053;DHT22;25758;48.200;16.338;2024-03-23T04:20:32;12.40;99.90
40053;DHT22;25758;48.200;16.338;2024-03-23T04:22:58;12.60;99.90
40053;DHT22;25758;48.200;16.338;2024-03-23T04:30:17;12.50;99.90
40053;DHT22;25758;48.200;16.338;2024-03-23T04:32:43;12.40;99.90
40053;DHT22;25758;48.200;16.338;2024-03-23T04:47:25;11.80;99.90
40053;DHT22;25758;48.200;16.338;2024-03-23T04:49:50;11.70;99.90
40053;DHT22;25758;48.200;16.338;2024-03-23T04:52:17;11.80;99.90
40053;DHT22;25758;48.200;16.338;2024-03-23T04:54:42;11.80;99.90
40053;DHT22;25758;48.200;16.338;2024-03-23T04:57:08;11.80;99.90
40053;DHT22;25758;48.200;16.338;2024-03-23T04:59:34;11.90;99.90
40053;DHT22;25758;48.200;16.338;2024-03-23T05:02:00;11.90;99.90
40053;DHT22;25758;48.200;16.338;2024-03-23T05:04:26;11.90;99.90
40053;DHT22;25758;48.200;16.338;2024-03-23T05:06:52;12.00;99.90
40053;DHT22;25758;48.200;16.338;2024-03-23T05:09:17;11.90;99.90
40053;DHT22;25758;48.200;16.338;2024-03-23T05:11:43;12.10;99.90
40053;DHT22;25758;48.200;16.338;2024-03-23T05:14:08;12.10;99.90
40053;DHT22;25758;48.200;16.338;2024-03-23T05:16:34;12.20;99.90
40053;DHT22;25758;48.200;16.338;2024-03-23T05:19:00;12.30;99.90
40053;DHT22;25758;48.200;16.338;2024-03-23T05:21:26;12.40;99.90
40053;DHT22;25758;48.200;16.338;2024-03-23T05:23:54;12.40;99.90
40053;DHT22;25758;48.200;16.338;2024-03-23T05:26:19;12.30;99.90
40053;DHT22;25758;48.200;16.338;2024-03-23T05:28:45;12.30;99.90
40053;DHT22;25758;48.200;16.338;2024-03-23T05:36:06;12.30;99.90
40053;DHT22;25758;48.200;16.338;2024-03-23T05:38:36;12.30;99.90
40053;DHT22;25758;48.200;16.338;2024-03-23T05:41:02;12.10;99.90
40053;DHT22;25758;48.200;16.338;2024-03-23T05:43:27;12.00;99.90
40053;DHT22;25758;48.200;16.338;2024-03-23T05:45:58;11.80;99.90
40053;DHT22;25758;48.200;16.338;2024-03-23T05:48:27;12.00;99.90
40053;DHT22;25758;48.200;16.338;2024-03-23T05:50:53;11.90;99.90
40053;DHT22;25758;48.200;16.338;2024-03-23T05:53:20;11.80;99.90
40053;DHT22;25758;48.200;16.338;2024-03-23T05:55:49;11.80;99.90
40053;DHT22;25758;48.200;16.338;2024-03-23T05:58:16;11.80;99.90
40053;DHT22;25758;48.200;16.338;2024-03-23T06:03:08;11.80;99.90
40053;DHT22;25758;48.200;16.338;2024-03-23T06:08:00;11.90;99.90
40053;DHT22;25758;48.200;16.338;2024-03-23T06:10:25;11.80;99.90
40053;DHT22;25758;48.200;16.338;2024-03-23T06:15:18;11.90;99.90
40053;DHT22;25758;48.200;16.338;2024-03-23T06:17:44;11.90;99.90
40053;DHT22;25758;48.200;16.338;2024-03-23T06:20:10;11.90;99.90
40053;DHT22;25758;48.200;16.338;2024-03-23T06:25:02;11.90;99.90
40053;DHT22;25758;48.200;16.338;2024-03-23T06:27:28;11.90;99.90
40053;DHT22;25758;48.200;16.338;2024-03-23T06:29:54;11.90;99.90
40053;DHT22;25758;48.200;16.338;2024-03-23T06:34:46;12.20;99.90
40053;DHT22;25758;48.200;16.338;2024-03-23T06:37:12;12.00;99.90
40053;DHT22;25758;48.200;16.338;2024-03-23T06:39:38;12.00;99.90
40053;DHT22;25758;48.200;16.338;2024-03-23T06:44:30;12.00;99.90
40053;DHT22;25758;48.200;16.338;2024-03-23T06:46:56;12.10;99.90
40053;DHT22;25758;48.200;16.338;2024-03-23T06:49:25;12.10;99.90
40053;DHT22;25758;48.200;16.338;2024-03-23T06:51:51;12.10;99.90
40053;DHT22;25758;48.200;16.338;2024-03-23T06:54:17;12.20;99.90
40053;DHT22;25758;48.200;16.338;2024-03-23T06:56:46;12.20;99.90
40053;DHT22;25758;48.200;16.338;2024-03-23T07:06:31;12.20;99.90
40053;DHT22;25758;48.200;16.338;2024-03-23T07:13:53;12.20;99.90
40053;DHT22;25758;48.200;16.338;2024-03-23T07:16:21;12.20;99.90
40053;DHT22;25758;48.200;16.338;2024-03-23T07:23:42;12.30;99.90
40053;DHT22;25758;48.200;16.338;2024-03-23T07:26:10;12.30;99.90
40053;DHT22;25758;48.200;16.338;2024-03-23T07:31:04;12.40;99.90
40053;DHT22;25758;48.200;16.338;2024-03-23T07:33:30;12.40;99.90
40053;DHT22;25758;48.200;16.338;2024-03-23T07:35:55;12.50;99.90
40053;DHT22;25758;48.200;16.338;2024-03-23T07:38:21;12.50;99.90
40053;DHT22;25758;48.200;16.338;2024-03-23T07:40:47;12.50;99.90
40053;DHT22;25758;48.200;16.338;2024-03-23T07:43:15;12.60;99.90
40053;DHT22;25758;48.200;16.338;2024-03-23T07:45:41;12.60;99.90
40053;DHT22;25758;48.200;16.338;2024-03-23T07:48:06;12.60;99.90
40053;DHT22;25758;48.200;16.338;2024-03-23T07:50:32;12.70;99.90
40053;DHT22;25758;48.200;16.338;2024-03-23T07:52:58;12.80;99.90
40053;DHT22;25758;48.200;16.338;2024-03-23T07:55:23;12.80;99.90
40053;DHT22;25758;48.200;16.338;2024-03-23T07:57:51;12.90;99.90
40053;DHT22;25758;48.200;16.338;2024-03-23T08:00:17;12.80;99.90
40053;DHT22;25758;48.200;16.338;2024-03-23T08:05:08;13.10;99.90
40053;DHT22;25758;48.200;16.338;2024-03-23T08:07:34;13.10;99.90
40053;DHT22;25758;48.200;16.338;2024-03-23T08:10:00;13.40;99.90
40053;DHT22;25758;48.200;16.338;2024-03-23T08:12:28;13.40;99.90
40053;DHT22;25758;48.200;16.338;2024-03-23T08:14:54;13.50;99.90
40053;DHT22;25758;48.200;16.338;2024-03-23T08:17:20;13.60;99.90
40053;DHT22;25758;48.200;16.338;2024-03-23T08:19:45;13.90;99.90
40053;DHT22;25758;48.200;16.338;2024-03-23T08:22:11;13.90;99.90
40053;DHT22;25758;48.200;16.338;2024-03-23T08:24:36;14.00;99.90
40053;DHT22;25758;48.200;16.338;2024-03-23T08:27:02;14.40;99.90
40053;DHT22;25758;48.200;16.338;2024-03-23T08:29:30;14.80;99.90
40053;DHT22;25758;48.200;16.338;2024-03-23T08:31:55;15.30;99.90
40053;DHT22;25758;48.200;16.338;2024-03-23T08:34:21;16.30;99.90
40053;DHT22;25758;48.200;16.338;2024-03-23T08:36:46;16.30;99.90
40053;DHT22;25758;48.200;16.338;2024-03-23T08:39:12;16.50;99.90
40053;DHT22;25758;48.200;16.338;2024-03-23T08:41:38;16.90;99.90
40053;DHT22;25758;48.200;16.338;2024-03-23T08:44:03;17.30;99.90
40053;DHT22;25758;48.200;16.338;2024-03-23T08:46:29;17.70;99.10
40053;DHT22;25758;48.200;16.338;2024-03-23T08:48:54;18.00;98.40
40053;DHT22;25758;48.200;16.338;2024-03-23T08:51:20;18.40;98.30
40053;DHT22;25758;48.200;16.338;2024-03-23T08:53:46;18.70;96.90
40053;DHT22;25758;48.200;16.338;2024-03-23T08:56:11;19.00;96.00
40053;DHT22;25758;48.200;16.338;2024-03-23T08:58:38;18.90;95.50
40053;DHT22;25758;48.200;16.338;2024-03-23T09:01:09;19.20;94.40
40053;DHT22;25758;48.200;16.338;2024-03-23T09:03:36;19.20;94.30
40053;DHT22;25758;48.200;16.338;2024-03-23T09:06:14;20.00;93.70
40053;DHT22;25758;48.200;16.338;2024-03-23T09:08:40;19.90;93.50
40053;DHT22;25758;48.200;16.338;2024-03-23T09:11:11;20.80;92.80
40053;DHT22;25758;48.200;16.338;2024-03-23T09:13:37;20.80;92.80
40053;DHT22;25758;48.200;16.338;2024-03-23T09:16:04;21.10;92.00
40053;DHT22;25758;48.200;16.338;2024-03-23T09:18:32;21.50;90.60
40053;DHT22;25758;48.200;16.338;2024-03-23T09:20:58;21.40;90.50
40053;DHT22;25758;48.200;16.338;2024-03-23T09:23:23;21.30;87.50
40053;DHT22;25758;48.200;16.338;2024-03-23T09:25:49;21.40;89.10
40053;DHT22;25758;48.200;16.338;2024-03-23T09:30:40;21.90;87.20
40053;DHT22;25758;48.200;16.338;2024-03-23T09:33:10;22.00;85.70
40053;DHT22;25758;48.200;16.338;2024-03-23T09:35:39;22.00;86.40
40053;DHT22;25758;48.200;16.338;2024-03-23T09:38:05;21.50;86.50
40053;DHT22;25758;48.200;16.338;2024-03-23T09:40:33;21.60;86.90
40053;DHT22;25758;48.200;16.338;2024-03-23T09:42:59;21.20;83.80
40053;DHT22;25758;48.200;16.338;2024-03-23T09:45:28;21.30;86.60
40053;DHT22;25758;48.200;16.338;2024-03-23T09:47:57;21.60;84.70
40053;DHT22;25758;48.200;16.338;2024-03-23T09:50:23;21.80;86.00
40053;DHT22;25758;48.200;16.338;2024-03-23T09:52:49;21.40;83.80
40053;DHT22;25758;48.200;16.338;2024-03-23T09:55:14;21.10;83.30
40053;DHT22;25758;48.200;16.338;2024-03-23T09:57:43;21.20;86.80
40053;DHT22;25758;48.200;16.338;2024-03-23T10:00:09;20.90;84.50
40053;DHT22;25758;48.200;16.338;2024-03-23T10:02:35;20.80;85.60
40053;DHT22;25758;48.200;16.338;2024-03-23T10:05:01;21.00;86.10
40053;DHT22;25758;48.200;16.338;2024-03-23T10:07:27;21.10;88.40
40053;DHT22;25758;48.200;16.338;2024-03-23T10:09:56;21.50;84.60
40053;DHT22;25758;48.200;16.338;2024-03-23T10:12:23;21.50;83.70
40053;DHT22;25758;48.200;16.338;2024-03-23T10:14:50;21.70;85.60
40053;DHT22;25758;48.200;16.338;2024-03-23T10:17:21;22.00;82.80
40053;DHT22;25758;48.200;16.338;2024-03-23T10:19:52;22.20;83.10
40053;DHT22;25758;48.200;16.338;2024-03-23T10:22:19;22.10;82.00
40053;DHT22;25758;48.200;16.338;2024-03-23T10:24:46;22.10;82.40
40053;DHT22;25758;48.200;16.338;2024-03-23T10:27:21;21.90;82.30
40053;DHT22;25758;48.200;16.338;2024-03-23T10:29:50;22.10;82.80
40053;DHT22;25758;48.200;16.338;2024-03-23T10:32:17;22.50;83.10
40053;DHT22;25758;48.200;16.338;2024-03-23T10:34:43;22.80;79.90
40053;DHT22;25758;48.200;16.338;2024-03-23T10:37:09;23.00;81.10
40053;DHT22;25758;48.200;16.338;2024-03-23T10:39:39;23.20;76.90
40053;DHT22;25758;48.200;16.338;2024-03-23T10:42:06;23.30;74.80
40053;DHT22;25758;48.200;16.338;2024-03-23T10:44:33;23.20;74.70
40053;DHT22;25758;48.200;16.338;2024-03-23T10:47:03;23.60;75.70
40053;DHT22;25758;48.200;16.338;2024-03-23T10:49:30;23.70;76.20
40053;DHT22;25758;48.200;16.338;2024-03-23T10:52:06;23.80;77.60
40053;DHT22;25758;48.200;16.338;2024-03-23T10:54:32;23.70;73.50
40053;DHT22;25758;48.200;16.338;2024-03-23T10:59:33;24.00;73.90
40053;DHT22;25758;48.200;16.338;2024-03-23T11:02:00;23.90;72.30
40053;DHT22;25758;48.200;16.338;2024-03-23T11:04:41;23.60;74.50
40053;DHT22;25758;48.200;16.338;2024-03-23T11:09:54;23.50;73.00
40053;DHT22;25758;48.200;16.338;2024-03-23T11:17:21;23.50;71.60
40053;DHT22;25758;48.200;16.338;2024-03-23T11:22:41;23.50;70.30
40053;DHT22;25758;48.200;16.338;2024-03-23T11:25:17;23.50;72.10
40053;DHT22;25758;48.200;16.338;2024-03-23T11:27:44;23.40;71.30
40053;DHT22;25758;48.200;16.338;2024-03-23T11:30:16;23.40;71.00
40053;DHT22;25758;48.200;16.338;2024-03-23T11:32:45;23.00;71.00
40053;DHT22;25758;48.200;16.338;2024-03-23T11:40:32;22.40;71.90
40053;DHT22;25758;48.200;16.338;2024-03-23T11:43:03;22.20;73.10
40053;DHT22;25758;48.200;16.338;2024-03-23T11:45:29;22.00;73.80
40053;DHT22;25758;48.200;16.338;2024-03-23T11:48:21;21.80;72.30
40053;DHT22;25758;48.200;16.338;2024-03-23T11:50:51;21.80;73.70
40053;DHT22;25758;48.200;16.338;2024-03-23T11:53:21;21.60;74.00
40053;DHT22;25758;48.200;16.338;2024-03-23T11:55:51;21.50;73.80
40053;DHT22;25758;48.200;16.338;2024-03-23T11:58:18;21.50;73.70
40053;DHT22;25758;48.200;16.338;2024-03-23T12:00:57;21.50;75.70
40053;DHT22;25758;48.200;16.338;2024-03-23T12:03:24;21.50;74.80
40053;DHT22;25758;48.200;16.338;2024-03-23T12:06:01;21.40;76.30
40053;DHT22;25758;48.200;16.338;2024-03-23T12:08:32;21.20;75.90
40053;DHT22;25758;48.200;16.338;2024-03-23T12:11:11;21.20;76.40
40053;DHT22;25758;48.200;16.338;2024-03-23T12:13:38;21.10;77.60
40053;DHT22;25758;48.200;16.338;2024-03-23T12:18:44;20.90;76.30
40053;DHT22;25758;48.200;16.338;2024-03-23T12:21:10;20.90;77.30
40053;DHT22;25758;48.200;16.338;2024-03-23T12:23:38;20.80;76.80
40053;DHT22;25758;48.200;16.338;2024-03-23T12:26:04;20.80;76.70
40053;DHT22;25758;48.200;16.338;2024-03-23T12:28:29;20.60;75.90
40053;DHT22;25758;48.200;16.338;2024-03-23T12:33:21;20.60;76.90
40053;DHT22;25758;48.200;16.338;2024-03-23T12:35:48;20.50;76.60
40053;DHT22;25758;48.200;16.338;2024-03-23T12:38:13;20.50;77.20
40053;DHT22;25758;48.200;16.338;2024-03-23T12:40:39;20.30;77.10
40053;DHT22;25758;48.200;16.338;2024-03-23T12:47:58;20.20;76.90
40053;DHT22;25758;48.200;16.338;2024-03-23T12:50:24;20.10;78.10
40053;DHT22;25758;48.200;16.338;2024-03-23T12:52:50;20.10;78.30
40053;DHT22;25758;48.200;16.338;2024-03-23T12:55:16;19.90;80.20
40053;DHT22;25758;48.200;16.338;2024-03-23T12:57:42;19.30;85.10
40053;DHT22;25758;48.200;16.338;2024-03-23T13:00:08;18.70;89.30
40053;DHT22;25758;48.200;16.338;2024-03-23T13:02:37;18.60;89.60
40053;DHT22;25758;48.200;16.338;2024-03-23T13:05:04;18.40;90.90
40053;DHT22;25758;48.200;16.338;2024-03-23T13:07:30;18.00;91.90
40053;DHT22;25758;48.200;16.338;2024-03-23T13:09:55;17.80;92.50
40053;DHT22;25758;48.200;16.338;2024-03-23T13:12:22;17.30;93.70
40053;DHT22;25758;48.200;16.338;2024-03-23T13:14:48;17.50;94.90
40053;DHT22;25758;48.200;16.338;2024-03-23T13:17:14;16.90;95.90
40053;DHT22;25758;48.200;16.338;2024-03-23T13:19:40;16.90;96.40
40053;DHT22;25758;48.200;16.338;2024-03-23T13:22:06;16.80;97.10
40053;DHT22;25758;48.200;16.338;2024-03-23T13:24:32;16.50;97.60
40053;DHT22;25758;48.200;16.338;2024-03-23T13:26:58;16.30;98.70
40053;DHT22;25758;48.200;16.338;2024-03-23T13:29:24;16.00;98.90
40053;DHT22;25758;48.200;16.338;2024-03-23T13:31:51;16.20;98.70
40053;DHT22;25758;48.200;16.338;2024-03-23T13:34:17;15.70;99.50
40053;DHT22;25758;48.200;16.338;2024-03-23T13:36:44;15.20;99.90
40053;DHT22;25758;48.200;16.338;2024-03-23T13:39:10;15.00;99.90
40053;DHT22;25758;48.200;16.338;2024-03-23T13:41:45;15.10;99.90
40053;DHT22;25758;48.200;16.338;2024-03-23T13:44:13;14.70;99.90
40053;DHT22;25758;48.200;16.338;2024-03-23T13:46:40;14.60;99.90
40053;DHT22;25758;48.200;16.338;2024-03-23T13:49:06;14.30;99.90
40053;DHT22;25758;48.200;16.338;2024-03-23T13:51:32;14.30;99.90
40053;DHT22;25758;48.200;16.338;2024-03-23T13:53:58;14.30;99.90
40053;DHT22;25758;48.200;16.338;2024-03-23T13:56:30;14.00;99.90
40053;DHT22;25758;48.200;16.338;2024-03-23T13:58:56;13.90;99.90
40053;DHT22;25758;48.200;16.338;2024-03-23T14:01:22;13.30;99.90
40053;DHT22;25758;48.200;16.338;2024-03-23T14:03:47;13.40;99.90
40053;DHT22;25758;48.200;16.338;2024-03-23T14:06:13;13.50;99.90
40053;DHT22;25758;48.200;16.338;2024-03-23T14:08:39;13.50;99.90
40053;DHT22;25758;48.200;16.338;2024-03-23T14:13:37;13.50;99.90
40053;DHT22;25758;48.200;16.338;2024-03-23T14:16:03;13.50;99.90
40053;DHT22;25758;48.200;16.338;2024-03-23T14:18:29;13.40;99.90
40053;DHT22;25758;48.200;16.338;2024-03-23T14:20:59;13.60;99.90
40053;DHT22;25758;48.200;16.338;2024-03-23T14:23:29;13.60;99.90
40053;DHT22;25758;48.200;16.338;2024-03-23T14:25:56;13.50;99.90
40053;DHT22;25758;48.200;16.338;2024-03-23T14:30:48;13.50;99.90
40053;DHT22;25758;48.200;16.338;2024-03-23T14:33:15;13.20;99.90
40053;DHT22;25758;48.200;16.338;2024-03-23T14:35:41;13.10;99.90
40053;DHT22;25758;48.200;16.338;2024-03-23T14:38:06;12.70;99.90
40053;DHT22;25758;48.200;16.338;2024-03-23T14:40:33;12.70;99.90
40053;DHT22;25758;48.200;16.338;2024-03-23T14:42:58;12.90;99.90
40053;DHT22;25758;48.200;16.338;2024-03-23T14:45:24;12.50;99.90
40053;DHT22;25758;48.200;16.338;2024-03-23T14:47:53;12.50;99.90
40053;DHT22;25758;48.200;16.338;2024-03-23T14:50:18;12.40;99.90
40053;DHT22;25758;48.200;16.338;2024-03-23T14:52:45;12.30;99.90
40053;DHT22;25758;48.200;16.338;2024-03-23T14:55:11;12.40;99.90
40053;DHT22;25758;48.200;16.338;2024-03-23T14:57:37;12.10;99.90
40053;DHT22;25758;48.200;16.338;2024-03-23T15:00:08;11.80;99.90
40053;DHT22;25758;48.200;16.338;2024-03-23T15:02:36;11.80;99.90
40053;DHT22;25758;48.200;16.338;2024-03-23T15:05:02;11.70;99.90
40053;DHT22;25758;48.200;16.338;2024-03-23T15:07:30;11.50;99.90
40053;DHT22;25758;48.200;16.338;2024-03-23T15:09:56;11.40;99.90
40053;DHT22;25758;48.200;16.338;2024-03-23T15:14:48;11.20;99.90
40053;DHT22;25758;48.200;16.338;2024-03-23T15:17:13;11.00;99.90
40053;DHT22;25758;48.200;16.338;2024-03-23T15:19:39;11.30;99.90
40053;DHT22;25758;48.200;16.338;2024-03-23T15:22:07;11.30;99.90
40053;DHT22;25758;48.200;16.338;2024-03-23T15:24:34;11.10;99.90
40053;DHT22;25758;48.200;16.338;2024-03-23T15:27:01;11.10;99.90
40053;DHT22;25758;48.200;16.338;2024-03-23T15:29:27;11.00;99.90
40053;DHT22;25758;48.200;16.338;2024-03-23T15:31:52;10.90;99.90
40053;DHT22;25758;48.200;16.338;2024-03-23T15:34:19;11.00;99.90
40053;DHT22;25758;48.200;16.338;2024-03-23T15:36:47;11.10;99.90
40053;DHT22;25758;48.200;16.338;2024-03-23T15:39:14;11.10;99.90
40053;DHT22;25758;48.200;16.338;2024-03-23T15:41:40;10.90;99.90
40053;DHT22;25758;48.200;16.338;2024-03-23T15:44:05;11.10;99.90
40053;DHT22;25758;48.200;16.338;2024-03-23T15:46:31;11.10;99.90
40053;DHT22;25758;48.200;16.338;2024-03-23T15:48:57;10.90;99.90
40053;DHT22;25758;48.200;16.338;2024-03-23T15:51:22;10.80;99.90
40053;DHT22;25758;48.200;16.338;2024-03-23T15:53:49;10.80;99.90
40053;DHT22;25758;48.200;16.338;2024-03-23T15:56:17;10.90;99.90
40053;DHT22;25758;48.200;16.338;2024-03-23T15:58:43;10.90;99.90
40053;DHT22;25758;48.200;16.338;2024-03-23T16:03:36;10.50;99.90
40053;DHT22;25758;48.200;16.338;2024-03-23T16:06:04;10.50;99.90
40053;DHT22;25758;48.200;16.338;2024-03-23T16:08:30;10.70;99.90
40053;DHT22;25758;48.200;16.338;2024-03-23T16:11:04;10.80;99.90
40053;DHT22;25758;48.200;16.338;2024-03-23T16:13:30;10.70;99.90
40053;DHT22;25758;48.200;16.338;2024-03-23T16:16:06;10.60;99.90
40053;DHT22;25758;48.200;16.338;2024-03-23T16:18:33;10.60;99.90
40053;DHT22;25758;48.200;16.338;2024-03-23T16:21:00;10.50;99.90
40053;DHT22;25758;48.200;16.338;2024-03-23T16:23:27;10.60;99.90
40053;DHT22;25758;48.200;16.338;2024-03-23T16:25:54;10.70;99.90
40053;DHT22;25758;48.200;16.338;2024-03-23T16:28:27;10.80;99.90
40053;DHT22;25758;48.200;16.338;2024-03-23T16:33:25;10.80;99.90
40053;DHT22;25758;48.200;16.338;2024-03-23T16:36:07;11.00;99.90
40053;DHT22;25758;48.200;16.338;2024-03-23T16:38:35;11.00;99.90
40053;DHT22;25758;48.200;16.338;2024-03-23T16:41:05;11.20;99.90
40053;DHT22;25758;48.200;16.338;2024-03-23T16:43:32;11.20;99.90
40053;DHT22;25758;48.200;16.338;2024-03-23T16:48:31;11.20;99.90
40053;DHT22;25758;48.200;16.338;2024-03-23T16:50:58;11.20;99.90
40053;DHT22;25758;48.200;16.338;2024-03-23T16:53:24;11.00;99.90
40053;DHT22;25758;48.200;16.338;2024-03-23T16:56:03;11.00;99.90
40053;DHT22;25758;48.200;16.338;2024-03-23T16:58:30;11.00;99.90
40053;DHT22;25758;48.200;16.338;2024-03-23T17:00:56;11.00;99.90
40053;DHT22;25758;48.200;16.338;2024-03-23T17:03:27;11.00;99.90
40053;DHT22;25758;48.200;16.338;2024-03-23T17:05:52;11.00;99.90
40053;DHT22;25758;48.200;16.338;2024-03-23T17:08:19;10.90;99.90
40053;DHT22;25758;48.200;16.338;2024-03-23T17:10:44;10.80;99.90
40053;DHT22;25758;48.200;16.338;2024-03-23T17:13:10;10.80;99.90
40053;DHT22;25758;48.200;16.338;2024-03-23T17:15:46;10.80;99.90
40053;DHT22;25758;48.200;16.338;2024-03-23T17:18:12;10.80;99.90
40053;DHT22;25758;48.200;16.338;2024-03-23T17:20:39;10.80;99.90
40053;DHT22;25758;48.200;16.338;2024-03-23T17:23:05;10.80;99.90
40053;DHT22;25758;48.200;16.338;2024-03-23T17:27:56;10.80;99.90
40053;DHT22;25758;48.200;16.338;2024-03-23T17:30:22;10.40;99.90
40053;DHT22;25758;48.200;16.338;2024-03-23T17:32:48;10.50;99.90
40053;DHT22;25758;48.200;16.338;2024-03-23T17:37:41;10.60;99.90
40053;DHT22;25758;48.200;16.338;2024-03-23T17:40:08;10.70;99.90
40053;DHT22;25758;48.200;16.338;2024-03-23T17:45:04;10.40;99.90
40053;DHT22;25758;48.200;16.338;2024-03-23T17:47:37;10.40;99.90
40053;DHT22;25758;48.200;16.338;2024-03-23T17:50:03;10.50;99.90
40053;DHT22;25758;48.200;16.338;2024-03-23T17:52:30;10.50;99.90
40053;DHT22;25758;48.200;16.338;2024-03-23T17:54:56;10.50;99.90
40053;DHT22;25758;48.200;16.338;2024-03-23T17:57:21;10.50;99.90
40053;DHT22;25758;48.200;16.338;2024-03-23T18:02:14;10.40;99.90
40053;DHT22;25758;48.200;16.338;2024-03-23T18:04:43;10.30;99.90
40053;DHT22;25758;48.200;16.338;2024-03-23T18:07:09;10.10;99.90
40053;DHT22;25758;48.200;16.338;2024-03-23T18:09:35;10.00;99.90
40053;DHT22;25758;48.200;16.338;2024-03-23T18:12:00;10.10;99.90
40053;DHT22;25758;48.200;16.338;2024-03-23T18:14:29;10.10;99.90
40053;DHT22;25758;48.200;16.338;2024-03-23T18:16:55;10.20;99.90
40053;DHT22;25758;48.200;16.338;2024-03-23T18:19:21;10.40;99.90
40053;DHT22;25758;48.200;16.338;2024-03-23T18:21:47;10.10;99.90
40053;DHT22;25758;48.200;16.338;2024-03-23T18:24:12;10.30;99.90
40053;DHT22;25758;48.200;16.338;2024-03-23T18:31:30;10.30;99.90
40053;DHT22;25758;48.200;16.338;2024-03-23T18:33:56;10.20;99.90
40053;DHT22;25758;48.200;16.338;2024-03-23T18:36:23;10.40;99.90
40053;DHT22;25758;48.200;16.338;2024-03-23T18:38:49;10.30;99.90